createdAt,value
2022-12-22T00:01:05.444Z,59.97
2022-12-22T00:03:51.190Z,69.93
2022-12-22T00:06:36.717Z,67.40
2022-12-22T00:09:22.089Z,71.63
2022-12-22T00:12:09.040Z,85.00
2022-12-22T00:14:54.743Z,68.90
2022-12-22T00:17:44.482Z,85.83
2022-12-22T00:20:35.597Z,69.40
2022-12-22T00:23:21.246Z,91.67
2022-12-22T00:26:07.128Z,63.73
2022-12-22T00:28:54.924Z,99.20
2022-12-22T00:31:41.118Z,114.10
2022-12-22T00:34:32.697Z,85.47
2022-12-22T00:37:18.560Z,120.00
2022-12-22T00:40:03.780Z,92.13
2022-12-22T00:42:49.705Z,133.13
2022-12-22T00:45:36.851Z,92.50
2022-12-22T00:48:23.094Z,78.90
2022-12-22T00:51:08.817Z,202.20
2022-12-22T00:53:54.697Z,188.90
2022-12-22T00:56:40.175Z,74.80
2022-12-22T00:59:27.975Z,74.07
2022-12-22T01:02:14.899Z,114.57
2022-12-22T01:05:00.641Z,169.03
2022-12-22T01:07:46.229Z,139.30
2022-12-22T01:10:33.087Z,77.27
2022-12-22T01:13:18.662Z,157.27
2022-12-22T01:16:04.313Z,156.77
2022-12-22T01:18:51.498Z,150.33
2022-12-22T01:21:38.156Z,161.97
2022-12-22T01:24:29.841Z,180.10
2022-12-22T01:27:15.308Z,187.60
2022-12-22T01:30:01.228Z,97.97
2022-12-22T01:32:46.830Z,77.50
2022-12-22T01:35:38.759Z,85.97
2022-12-22T01:38:24.309Z,85.80
2022-12-22T01:41:11.600Z,75.87
2022-12-22T01:43:57.700Z,88.03
2022-12-22T01:46:45.362Z,92.83
2022-12-22T01:49:34.773Z,87.67
2022-12-22T01:52:22.111Z,80.03
2022-12-22T01:55:09.175Z,87.67
2022-12-22T01:57:55.693Z,84.83
2022-12-22T02:00:41.269Z,81.50
2022-12-22T02:03:34.923Z,99.00
2022-12-22T02:06:38.595Z,87.00
2022-12-22T02:09:43.167Z,72.20
2022-12-22T02:12:37.149Z,72.70
2022-12-22T02:15:30.034Z,79.87
2022-12-22T02:18:22.095Z,85.13
2022-12-22T02:21:11.378Z,83.83
2022-12-22T02:24:36.091Z,92.77
2022-12-22T02:27:25.309Z,88.20
2022-12-22T02:30:14.436Z,166.30
2022-12-22T02:33:09.220Z,100.07
2022-12-22T02:36:04.137Z,184.83
2022-12-22T02:39:00.860Z,115.77
2022-12-22T02:41:55.388Z,124.23
2022-12-22T02:44:50.216Z,86.27
2022-12-22T02:47:42.047Z,92.00
2022-12-22T02:50:35.022Z,103.70
2022-12-22T02:53:22.187Z,146.93
2022-12-22T02:56:07.555Z,78.07
2022-12-22T02:58:53.624Z,97.00
2022-12-22T03:01:40.776Z,82.60
2022-12-22T03:04:26.239Z,143.90
2022-12-22T03:07:11.718Z,149.17
2022-12-22T03:09:57.339Z,179.80
2022-12-22T03:12:42.713Z,140.00
2022-12-22T03:15:28.612Z,322.60
2022-12-22T03:18:19.874Z,195.23
2022-12-22T03:21:05.200Z,232.83
2022-12-22T03:23:50.755Z,143.57
2022-12-22T03:26:19.140Z,306.87
2022-12-22T03:28:47.221Z,298.07
2022-12-22T03:31:15.369Z,247.77
2022-12-22T03:33:44.767Z,139.63
2022-12-22T03:36:15.099Z,207.07
2022-12-22T03:38:43.084Z,135.03
2022-12-22T03:41:31.944Z,106.80
2022-12-22T03:44:17.208Z,219.43
2022-12-22T03:46:45.239Z,124.40
2022-12-22T03:49:14.633Z,131.37
2022-12-22T03:51:44.408Z,117.43
2022-12-22T03:54:14.297Z,148.13
2022-12-22T03:56:42.601Z,125.43
2022-12-22T03:59:10.936Z,156.20
2022-12-22T04:01:41.617Z,104.23
2022-12-22T04:04:10.352Z,103.80
2022-12-22T04:06:40.135Z,108.60
2022-12-22T04:09:08.404Z,141.53
2022-12-22T04:11:54.272Z,116.37
2022-12-22T04:14:25.394Z,126.60
2022-12-22T04:16:57.713Z,113.73
2022-12-22T04:19:25.807Z,140.47
2022-12-22T04:21:55.771Z,102.10
2022-12-22T04:24:23.954Z,103.73
2022-12-22T04:26:52.340Z,112.17
2022-12-22T04:29:20.403Z,114.13
2022-12-22T04:31:48.454Z,101.27
2022-12-22T04:34:16.463Z,130.00
2022-12-22T04:36:44.538Z,92.50
2022-12-22T04:39:13.912Z,105.47
2022-12-22T04:41:41.872Z,84.87
2022-12-22T04:44:09.779Z,156.40
2022-12-22T04:46:37.690Z,149.93
2022-12-22T04:49:05.632Z,151.83
2022-12-22T04:51:33.607Z,142.63
2022-12-22T04:54:01.538Z,128.20
2022-12-22T04:56:30.788Z,131.73
2022-12-22T04:58:58.788Z,94.07
2022-12-22T05:01:26.852Z,145.93
2022-12-22T05:03:54.876Z,128.97
2022-12-22T05:06:22.813Z,139.10
2022-12-22T05:08:50.751Z,99.23
2022-12-22T05:11:18.843Z,91.90
2022-12-22T05:13:48.527Z,91.50
2022-12-22T05:16:17.881Z,109.67
2022-12-22T05:18:46.923Z,104.30
2022-12-22T05:21:16.909Z,116.90
2022-12-22T05:23:45.248Z,106.93
2022-12-22T05:26:14.818Z,124.07
2022-12-22T05:28:43.720Z,102.43
2022-12-22T05:31:17.135Z,126.83
2022-12-22T05:33:45.250Z,120.23
2022-12-22T05:36:13.316Z,106.40
2022-12-22T05:38:41.474Z,104.67
2022-12-22T05:41:09.575Z,124.37
2022-12-22T05:43:37.852Z,141.60
2022-12-22T05:46:06.936Z,124.97
2022-12-22T05:48:39.034Z,116.53
2022-12-22T05:51:08.511Z,128.50
2022-12-22T05:53:36.528Z,114.50
2022-12-22T05:56:04.797Z,117.40
2022-12-22T05:58:32.862Z,117.30
2022-12-22T06:01:01.705Z,122.10
2022-12-22T06:03:30.372Z,127.60
2022-12-22T06:06:00.324Z,112.10
2022-12-22T06:08:28.726Z,127.73
2022-12-22T06:10:57.561Z,135.23
2022-12-22T06:13:26.211Z,165.07
2022-12-22T06:15:54.480Z,112.80
2022-12-22T06:18:22.698Z,98.23
2022-12-22T06:20:53.321Z,125.33
2022-12-22T06:23:22.845Z,106.13
2022-12-22T06:26:02.771Z,133.27
2022-12-22T06:28:30.718Z,119.20
2022-12-22T06:30:58.695Z,112.10
2022-12-22T06:33:26.720Z,124.10
2022-12-22T06:35:58.851Z,101.67
2022-12-22T06:38:28.994Z,110.43
2022-12-22T06:40:57.330Z,114.13
2022-12-22T06:43:24.489Z,123.37
2022-12-22T06:45:52.863Z,116.03
2022-12-22T06:48:21.386Z,119.30
2022-12-22T06:50:49.540Z,105.37
2022-12-22T06:53:17.510Z,113.53
2022-12-22T06:55:46.804Z,99.87
2022-12-22T06:58:14.808Z,128.27
2022-12-22T07:00:43.232Z,108.60
2022-12-22T07:03:11.364Z,133.50
2022-12-22T07:05:39.452Z,97.63
2022-12-22T07:08:09.069Z,118.93
2022-12-22T07:10:55.100Z,115.47
2022-12-22T07:13:25.061Z,117.63
2022-12-22T07:16:00.161Z,115.80
2022-12-22T07:18:29.486Z,113.43
2022-12-22T07:20:57.791Z,93.20
2022-12-22T07:23:26.657Z,100.83
2022-12-22T07:25:54.730Z,114.87
2022-12-22T07:28:24.247Z,114.00
2022-12-22T07:30:52.830Z,91.00
2022-12-22T07:33:21.391Z,105.23
2022-12-22T07:35:49.292Z,103.30
2022-12-22T07:38:17.208Z,140.90
2022-12-22T07:40:51.005Z,111.30
2022-12-22T07:43:18.941Z,122.13
2022-12-22T07:45:48.208Z,125.03
2022-12-22T07:48:33.530Z,107.60
2022-12-22T07:51:04.821Z,134.07
2022-12-22T07:53:33.832Z,99.73
2022-12-22T07:56:04.232Z,98.30
2022-12-22T07:58:32.204Z,117.23
2022-12-22T08:01:02.594Z,97.43
2022-12-22T08:03:30.493Z,133.57
2022-12-22T08:05:58.398Z,151.93
2022-12-22T08:08:26.345Z,111.40
2022-12-22T08:10:54.207Z,118.20
2022-12-22T08:13:22.227Z,132.97
2022-12-22T08:15:50.540Z,140.43
2022-12-22T08:18:20.806Z,93.87
2022-12-22T08:20:50.769Z,110.77
2022-12-22T08:23:18.951Z,131.67
2022-12-22T08:25:49.669Z,95.37
2022-12-22T08:28:18.233Z,105.80
2022-12-22T08:30:47.279Z,117.13
2022-12-22T08:33:15.274Z,127.93
2022-12-22T08:35:44.898Z,121.30
2022-12-22T08:38:14.025Z,110.97
2022-12-22T08:40:45.837Z,112.70
2022-12-22T08:43:14.197Z,113.13
2022-12-22T08:45:42.962Z,122.33
2022-12-22T08:48:11.554Z,91.00
2022-12-22T08:50:39.523Z,126.77
2022-12-22T08:53:29.729Z,124.27
2022-12-22T08:55:58.228Z,105.50
2022-12-22T08:58:26.287Z,113.97
2022-12-22T09:00:54.445Z,118.67
2022-12-22T09:03:22.656Z,99.63
2022-12-22T09:05:50.655Z,81.57
2022-12-22T09:08:19.911Z,80.07
2022-12-22T09:10:47.893Z,103.10
2022-12-22T09:13:15.800Z,106.83
2022-12-22T09:15:43.794Z,106.93
2022-12-22T09:18:11.732Z,98.43
2022-12-22T09:20:39.674Z,92.07
2022-12-22T09:23:07.789Z,78.60
2022-12-22T09:25:37.186Z,95.23
2022-12-22T09:28:08.256Z,94.97
2022-12-22T09:30:36.206Z,97.93
2022-12-22T09:33:04.224Z,82.17
2022-12-22T09:35:32.157Z,86.53
2022-12-22T09:38:00.152Z,99.13
2022-12-22T09:40:28.442Z,109.30
2022-12-22T09:42:59.236Z,90.60
2022-12-22T09:45:27.387Z,78.93
2022-12-22T09:47:56.181Z,78.43
2022-12-22T09:50:26.412Z,90.13
2022-12-22T09:52:58.617Z,90.40
2022-12-22T09:55:40.285Z,75.43
2022-12-22T09:58:25.808Z,106.60
2022-12-22T10:01:03.408Z,83.43
2022-12-22T10:03:41.500Z,84.77
2022-12-22T10:06:15.407Z,74.33
2022-12-22T10:08:43.713Z,86.97
2022-12-22T10:11:15.520Z,80.93
2022-12-22T10:13:45.264Z,93.50
2022-12-22T10:16:22.207Z,79.73
2022-12-22T10:19:02.083Z,73.97
2022-12-22T10:21:31.193Z,89.20
2022-12-22T10:23:59.285Z,84.53
2022-12-22T10:26:31.725Z,85.43
2022-12-22T10:29:06.729Z,78.33
2022-12-22T10:31:37.165Z,93.80
2022-12-22T10:34:13.856Z,70.47
2022-12-22T10:36:43.230Z,80.77
2022-12-22T10:39:14.117Z,84.33
2022-12-22T10:41:44.665Z,71.07
2022-12-22T10:44:23.971Z,101.60
2022-12-22T10:46:53.754Z,91.00
2022-12-22T10:49:24.124Z,87.53
2022-12-22T10:51:55.147Z,77.60
2022-12-22T10:54:29.183Z,73.90
2022-12-22T10:57:02.633Z,71.30
2022-12-22T10:59:32.986Z,69.63
2022-12-22T11:02:27.268Z,78.83
2022-12-22T11:05:01.316Z,67.63
2022-12-22T11:07:31.601Z,92.60
2022-12-22T11:09:59.684Z,77.10
2022-12-22T11:12:37.479Z,66.80
2022-12-22T11:15:22.025Z,61.50
2022-12-22T11:18:00.908Z,70.70
2022-12-22T11:20:41.852Z,68.83
2022-12-22T11:23:16.036Z,66.33
2022-12-22T11:25:57.359Z,60.23
2022-12-22T11:28:43.361Z,58.20
2022-12-22T11:31:25.239Z,67.43
2022-12-22T11:34:03.640Z,60.60
2022-12-22T11:36:40.959Z,65.37
2022-12-22T11:39:14.700Z,62.93
2022-12-22T11:41:50.375Z,73.03
2022-12-22T11:44:38.347Z,70.10
2022-12-22T11:47:18.073Z,86.17
2022-12-22T11:50:00.854Z,67.00
2022-12-22T11:53:00.339Z,112.57
2022-12-22T11:55:34.605Z,88.97
2022-12-22T11:58:34.346Z,76.47
2022-12-22T12:01:25.749Z,83.67
2022-12-22T12:04:11.400Z,73.53
2022-12-22T12:07:15.034Z,62.43
2022-12-22T12:09:52.309Z,79.03
2022-12-22T12:12:27.935Z,79.23
2022-12-22T12:15:07.841Z,84.20
2022-12-22T12:17:49.555Z,64.03
2022-12-22T12:20:41.389Z,91.83
2022-12-22T12:23:23.775Z,74.83
2022-12-22T12:26:02.120Z,76.17
2022-12-22T12:28:43.792Z,85.93
2022-12-22T12:31:19.075Z,90.63
2022-12-22T12:33:54.340Z,89.83
2022-12-22T12:36:28.703Z,79.67
2022-12-22T12:39:08.102Z,67.40
2022-12-22T12:41:46.014Z,65.10
2022-12-22T12:44:15.984Z,72.53
2022-12-22T12:47:05.762Z,71.10
2022-12-22T12:50:03.374Z,63.80
2022-12-22T12:53:14.249Z,61.07
2022-12-22T12:55:58.618Z,64.30
2022-12-22T12:58:55.512Z,66.50
2022-12-22T13:02:00.802Z,53.63
2022-12-22T13:05:01.749Z,31.53
2022-12-22T13:08:07.061Z,19.77
2022-12-22T13:10:36.682Z,22.17
2022-12-22T13:13:06.573Z,15.70
2022-12-22T13:15:36.358Z,22.27
2022-12-22T13:18:05.605Z,11.53
2022-12-22T13:20:36.239Z,11.00
2022-12-22T13:23:11.447Z,8.80
2022-12-22T13:25:44.807Z,11.93
2022-12-22T13:44:32.344Z,11.77
2022-12-22T13:47:05.985Z,10.70
2022-12-22T13:50:06.972Z,12.60
2022-12-22T13:52:24.550Z,9.27
2022-12-22T13:54:52.646Z,6.50
2022-12-22T13:57:23.211Z,4.43
2022-12-22T13:59:54.812Z,11.40
2022-12-22T14:02:23.496Z,9.97
2022-12-22T14:05:08.881Z,6.80
2022-12-22T14:07:36.995Z,5.67
2022-12-22T14:10:05.629Z,9.00
2022-12-22T14:12:43.259Z,7.00
2022-12-22T14:15:19.786Z,7.10
2022-12-22T14:17:52.938Z,4.83
2022-12-22T14:20:26.284Z,11.37
2022-12-22T14:22:57.863Z,7.37
2022-12-22T14:25:29.694Z,4.00
2022-12-22T14:27:58.861Z,7.40
2022-12-22T14:30:37.833Z,6.53
2022-12-22T14:33:18.825Z,7.20
2022-12-22T14:35:46.751Z,5.83
2022-12-22T14:38:22.962Z,5.10
2022-12-22T14:40:56.761Z,9.03
2022-12-22T14:43:31.453Z,6.73
2022-12-22T14:46:07.586Z,6.53
2022-12-22T14:48:40.771Z,4.50
2022-12-22T14:51:08.974Z,5.50
2022-12-22T14:53:44.759Z,5.80
2022-12-22T14:56:13.827Z,11.97
2022-12-22T14:58:44.035Z,7.03
2022-12-22T15:01:22.917Z,6.77
2022-12-22T15:04:06.283Z,6.70
2022-12-22T15:06:43.600Z,4.87
2022-12-22T15:10:04.186Z,6.70
2022-12-22T15:12:18.950Z,4.17
2022-12-22T15:14:48.779Z,3.07
2022-12-22T15:17:23.709Z,4.80
2022-12-22T15:19:52.029Z,4.83
2022-12-22T15:22:19.972Z,6.80
2022-12-22T15:24:48.063Z,3.00
2022-12-22T15:27:15.970Z,3.50
2022-12-22T15:29:43.916Z,9.10
2022-12-22T15:32:13.502Z,2.90
2022-12-22T15:34:43.418Z,8.10
2022-12-22T15:37:13.539Z,4.93
2022-12-22T15:39:41.555Z,7.13
2022-12-22T15:42:09.493Z,3.90
2022-12-22T15:44:39.085Z,6.50
2022-12-22T15:47:10.743Z,7.47
2022-12-22T15:49:38.960Z,5.77
2022-12-22T15:52:14.640Z,6.33
2022-12-22T15:54:42.991Z,5.30
2022-12-22T15:57:14.012Z,3.60
2022-12-22T15:59:42.023Z,5.33
2022-12-22T16:02:13.013Z,3.93
2022-12-22T16:04:41.317Z,4.50
2022-12-22T16:07:12.563Z,3.97
2022-12-22T16:09:42.721Z,12.87
2022-12-22T16:12:14.809Z,13.70
2022-12-22T16:14:50.032Z,5.00
2022-12-22T16:17:20.505Z,10.37
2022-12-22T16:19:48.564Z,6.70
2022-12-22T16:22:21.226Z,5.40
2022-12-22T16:24:50.583Z,4.07
2022-12-22T16:27:18.671Z,11.50
2022-12-22T16:29:50.673Z,3.37
2022-12-22T16:32:24.948Z,10.70
2022-12-22T16:34:53.020Z,6.63
2022-12-22T16:37:22.335Z,8.60
2022-12-22T16:39:50.732Z,6.70
2022-12-22T16:45:15.922Z,3.73
2022-12-22T16:47:43.982Z,3.17
2022-12-22T16:50:17.649Z,11.80
2022-12-22T16:52:47.463Z,4.50
2022-12-22T16:55:17.471Z,7.50
2022-12-22T16:57:45.504Z,4.70
2022-12-22T17:00:18.219Z,4.67
2022-12-22T17:02:49.448Z,5.13
2022-12-22T17:05:27.375Z,6.77
2022-12-22T17:07:58.373Z,4.53
2022-12-22T17:10:26.383Z,3.27
2022-12-22T17:12:57.494Z,5.00
2022-12-22T17:15:25.846Z,5.27
2022-12-22T17:17:54.411Z,6.87
2022-12-22T17:20:27.197Z,7.00
2022-12-22T17:22:59.455Z,8.53
2022-12-22T17:25:30.228Z,6.40
2022-12-22T17:27:59.962Z,9.13
2022-12-22T17:30:29.580Z,4.10
2022-12-22T17:32:57.553Z,5.97
2022-12-22T17:35:28.707Z,5.40
2022-12-22T17:37:58.243Z,5.40
2022-12-22T17:40:28.628Z,5.90
2022-12-22T17:42:56.745Z,4.03
2022-12-22T17:45:25.224Z,6.70
2022-12-22T17:47:53.370Z,3.70
2022-12-22T17:50:23.876Z,3.40
2022-12-22T17:52:52.020Z,4.70
2022-12-22T17:56:01.344Z,4.50
2022-12-22T17:58:15.453Z,9.43
2022-12-22T18:00:44.091Z,6.70
2022-12-22T18:03:14.115Z,7.30
2022-12-22T18:05:45.684Z,6.43
2022-12-22T18:08:18.352Z,5.37
2022-12-22T18:10:48.811Z,5.93
2022-12-22T18:13:19.594Z,18.57
2022-12-22T18:15:47.930Z,9.37
2022-12-22T18:18:17.396Z,8.83
2022-12-22T18:20:46.885Z,4.97
2022-12-22T18:23:35.628Z,5.50
2022-12-22T18:26:05.857Z,5.40
2022-12-22T18:28:33.912Z,4.20
2022-12-22T18:31:02.032Z,5.50
2022-12-22T18:33:29.991Z,3.83
2022-12-22T18:36:00.159Z,2.43
2022-12-22T18:38:30.814Z,5.60
2022-12-22T18:40:59.086Z,4.60
2022-12-22T18:43:28.546Z,4.80
2022-12-22T18:45:56.824Z,6.40
2022-12-22T18:48:25.091Z,3.10
2022-12-22T18:50:53.408Z,5.10
2022-12-22T18:53:27.021Z,7.10
2022-12-22T18:55:55.670Z,5.17
2022-12-22T18:58:24.441Z,2.70
2022-12-22T19:00:55.993Z,8.53
2022-12-22T19:03:28.891Z,8.60
2022-12-22T19:05:57.722Z,11.03
2022-12-22T19:08:27.498Z,3.87
2022-12-22T19:10:57.710Z,3.63
2022-12-22T19:13:29.393Z,6.17
2022-12-22T19:15:59.323Z,3.30
2022-12-22T19:18:28.131Z,3.70
2022-12-22T19:20:56.372Z,4.50
2022-12-22T19:23:26.383Z,4.10
2022-12-22T19:25:57.076Z,4.93
2022-12-22T19:28:28.387Z,4.43
2022-12-22T19:30:58.547Z,4.93
2022-12-22T19:33:30.441Z,3.73
2022-12-22T19:36:01.099Z,6.50
2022-12-22T19:38:30.431Z,4.63
2022-12-22T19:41:02.012Z,4.57
2022-12-22T19:43:30.612Z,3.37
2022-12-22T19:46:00.460Z,2.90
2022-12-22T19:48:28.519Z,6.00
2022-12-22T19:50:56.487Z,3.43
2022-12-22T19:53:26.506Z,3.57
2022-12-22T19:55:57.791Z,3.10
2022-12-22T19:58:28.977Z,4.30
2022-12-22T20:00:57.079Z,2.70
2022-12-22T20:03:27.142Z,2.97
2022-12-22T20:05:55.283Z,7.00
2022-12-22T20:08:23.217Z,2.30
2022-12-22T20:10:58.097Z,4.53
2022-12-22T20:13:30.420Z,2.27
2022-12-22T20:15:58.563Z,2.50
2022-12-22T20:18:30.564Z,2.77
2022-12-22T20:21:03.682Z,5.90
2022-12-22T20:23:34.881Z,3.00
2022-12-22T20:26:05.684Z,2.53
2022-12-22T20:28:35.306Z,6.70
2022-12-22T20:31:04.138Z,1.90
2022-12-22T20:33:34.759Z,6.20
2022-12-22T20:36:03.684Z,3.40
2022-12-22T20:38:34.702Z,2.50
2022-12-22T20:41:03.361Z,6.30
2022-12-22T20:43:32.817Z,2.60
2022-12-22T20:46:03.543Z,3.23
2022-12-22T20:48:36.383Z,3.57
2022-12-22T20:51:08.269Z,3.30
2022-12-22T20:53:36.196Z,3.87
2022-12-22T20:56:05.060Z,2.90
2022-12-22T20:58:36.129Z,3.33
2022-12-22T21:01:04.428Z,1.97
2022-12-22T21:03:33.786Z,1.63
2022-12-22T21:06:01.828Z,1.60
2022-12-22T21:08:29.815Z,2.60
2022-12-22T21:10:57.820Z,2.60
2022-12-22T21:13:25.818Z,3.10
2022-12-22T21:15:53.970Z,2.20
2022-12-22T21:18:24.446Z,2.37
2022-12-22T21:20:53.719Z,5.37
2022-12-22T21:23:21.636Z,1.83
2022-12-22T21:25:53.693Z,7.60
2022-12-22T21:28:27.455Z,2.33
2022-12-22T21:30:55.435Z,5.80
2022-12-22T21:33:23.855Z,2.20
2022-12-22T21:35:54.222Z,1.37
2022-12-22T21:38:25.352Z,2.00
2022-12-22T21:40:53.626Z,3.60
2022-12-22T21:43:21.579Z,2.33
2022-12-22T21:45:50.549Z,2.33
2022-12-22T21:48:21.509Z,4.03
2022-12-22T21:50:50.550Z,6.33
2022-12-22T21:53:22.495Z,7.17
2022-12-22T21:55:51.056Z,5.03
2022-12-22T21:58:18.998Z,2.87
2022-12-22T22:00:49.107Z,3.53
2022-12-22T22:03:17.608Z,4.10
2022-12-22T22:05:45.679Z,2.90
2022-12-22T22:08:13.805Z,2.13
2022-12-22T22:10:44.929Z,2.47
2022-12-22T22:13:15.800Z,2.90
2022-12-22T22:15:44.258Z,3.07
2022-12-22T22:18:17.189Z,1.80
2022-12-22T22:20:45.646Z,4.30
2022-12-22T22:23:15.231Z,3.17
2022-12-22T22:25:44.572Z,3.57
2022-12-22T22:28:12.875Z,2.80
2022-12-22T22:30:42.058Z,4.87
2022-12-22T22:33:11.368Z,3.60
2022-12-22T22:35:40.976Z,6.47
2022-12-22T22:38:12.549Z,4.20
2022-12-22T22:40:43.391Z,4.90
2022-12-22T22:43:13.199Z,4.47
2022-12-22T22:45:41.799Z,4.60
2022-12-22T22:48:17.543Z,2.10
2022-12-22T22:50:45.464Z,2.70
2022-12-22T22:53:13.575Z,3.47
2022-12-22T22:55:41.557Z,4.20
2022-12-22T22:58:11.378Z,4.73
2022-12-22T23:00:41.045Z,6.80
2022-12-22T23:03:09.033Z,3.10
2022-12-22T23:05:37.391Z,4.30
2022-12-22T23:08:05.842Z,5.43
2022-12-22T23:10:39.522Z,2.80
2022-12-22T23:13:09.643Z,4.27
2022-12-22T23:15:37.657Z,7.50
2022-12-22T23:18:07.003Z,5.20
2022-12-22T23:20:34.968Z,5.43
2022-12-22T23:23:02.933Z,6.70
2022-12-22T23:25:30.924Z,3.40
2022-12-22T23:27:58.844Z,4.47
2022-12-22T23:30:26.813Z,5.03
2022-12-22T23:32:54.758Z,5.33
2022-12-22T23:35:24.388Z,6.53
2022-12-22T23:37:52.541Z,4.43
2022-12-22T23:43:10.863Z,8.90
2022-12-22T23:45:39.888Z,4.90
2022-12-22T23:48:08.343Z,5.83
2022-12-22T23:50:37.921Z,6.20
2022-12-22T23:53:05.824Z,7.80
2022-12-22T23:55:33.733Z,6.47
2022-12-22T23:58:01.697Z,8.43
